Gualala, CA

3:21 PM PDT on July 26, 2016 (GMT -0700)
Ocean Ridge Gualala | | Change Station

Elev 932 ft 38.80 °N, 123.54 °W | Updated 7 minutes ago

Clear
Clear
77.9 °F
Feels Like 79 °F
N
2.7
Wind Variable Wind from SW

Today
High -- | Low -- °F
--% Chance of Precip.
Yesterday
High -- | Low -- °F
Precip. -- in
Pressure 29.81 in
Visibility 10.0 miles
Clouds Clear
Heat Index 79 °F
Dew Point 56 °F
Humidity 47%
Rainfall 0.00 in
Snow Depth Not available.
6:10 AM 8:30 PM
Waning Gibbous, 50% visible
METAR KUKI 262156Z AUTO VRB03KT 10SM CLR 41/04 A2983 RMK AO2 SLP093 T04110044
Pressure 29.81 in
Visibility 10.0 miles
Clouds Clear
Heat Index 79 °F
Dew Point 56 °F
Humidity 47%
Rainfall 0.00 in
Snow Depth Not available.
6:10 AM 8:30 PM
Waning Gibbous, 50% visible
METAR KUKI 262156Z AUTO VRB03KT 10SM CLR 41/04 A2983 RMK AO2 SLP093 T04110044

10-Day Weather Forecast

Almanac

Astronomy

Jul. 26, 2016 Rise Set
Actual Time
Civil Twilight
Nautical Twilight
Astronomical Twilight
Moon
Length of Visible Light
Length of Day
Tomorrow will be .
, % of the Moon is Illuminated

Today's Extremes

State Highs State Lows

Community

WunderPhotos

Upload Photos

1,927,717 photos uploaded!

WunderBlog® & News

Nearby

Air Quality

  Air Quality AQ Index Pollutant
Not available.

Snow Depth

Station Depth Elevation

Earthquake Activity

City Distance Mag. Time & Date
Minimum magnitude displayed is 2.5.

Coastal Water Temperatures

Place Temperature

Stations

Nearby Weather Stations

Station Location Temp. Windchill Dew Point Humidity Wind Precip. Elev Updated Type
                   

Watches & Warnings

There are currently no watches in effect.